sensor_id;sensor_type;location;lat;lon;timestamp;pressure;altitude;pressure_sealevel;temperature
20058;BMP180;10189;49.546;7.906;2022-11-20T00:03:42;97648.00;;;5.80
20058;BMP180;10189;49.546;7.906;2022-11-20T00:06:14;97646.00;;;5.80
20058;BMP180;10189;49.546;7.906;2022-11-20T00:08:41;97644.00;;;5.80
20058;BMP180;10189;49.546;7.906;2022-11-20T00:11:14;97641.00;;;5.90
20058;BMP180;10189;49.546;7.906;2022-11-20T00:13:40;97635.00;;;5.90
20058;BMP180;10189;49.546;7.906;2022-11-20T00:16:10;97643.00;;;5.80
20058;BMP180;10189;49.546;7.906;2022-11-20T00:18:36;97650.00;;;5.80
20058;BMP180;10189;49.546;7.906;2022-11-20T00:21:10;97649.00;;;5.70
20058;BMP180;10189;49.546;7.906;2022-11-20T00:23:37;97643.00;;;5.60
20058;BMP180;10189;49.546;7.906;2022-11-20T00:26:08;97654.00;;;5.50
20058;BMP180;10189;49.546;7.906;2022-11-20T00:28:35;97658.00;;;5.50
20058;BMP180;10189;49.546;7.906;2022-11-20T00:31:09;97652.00;;;5.60
20058;BMP180;10189;49.546;7.906;2022-11-20T00:33:36;97653.00;;;5.60
20058;BMP180;10189;49.546;7.906;2022-11-20T00:36:05;97644.00;;;5.70
20058;BMP180;10189;49.546;7.906;2022-11-20T00:38:32;97640.00;;;5.60
20058;BMP180;10189;49.546;7.906;2022-11-20T00:41:01;97643.00;;;5.60
20058;BMP180;10189;49.546;7.906;2022-11-20T00:43:27;97646.00;;;5.60
20058;BMP180;10189;49.546;7.906;2022-11-20T00:46:02;97652.00;;;5.60
20058;BMP180;10189;49.546;7.906;2022-11-20T00:48:28;97660.00;;;5.60
20058;BMP180;10189;49.546;7.906;2022-11-20T00:50:55;97652.00;;;5.60
20058;BMP180;10189;49.546;7.906;2022-11-20T00:53:21;97649.00;;;5.70
20058;BMP180;10189;49.546;7.906;2022-11-20T00:56:05;97650.00;;;5.70
20058;BMP180;10189;49.546;7.906;2022-11-20T00:58:34;97650.00;;;5.60
20058;BMP180;10189;49.546;7.906;2022-11-20T01:01:06;97654.00;;;5.60
20058;BMP180;10189;49.546;7.906;2022-11-20T01:03:38;97652.00;;;5.70
20058;BMP180;10189;49.546;7.906;2022-11-20T01:06:19;97645.00;;;5.80
20058;BMP180;10189;49.546;7.906;2022-11-20T01:08:46;97644.00;;;5.90
20058;BMP180;10189;49.546;7.906;2022-11-20T01:11:19;97642.00;;;5.90
20058;BMP180;10189;49.546;7.906;2022-11-20T01:13:47;97633.00;;;6.00
20058;BMP180;10189;49.546;7.906;2022-11-20T01:16:29;97624.00;;;5.90
20058;BMP180;10189;49.546;7.906;2022-11-20T01:18:59;97617.00;;;5.90
20058;BMP180;10189;49.546;7.906;2022-11-20T01:21:32;97622.00;;;6.00
20058;BMP180;10189;49.546;7.906;2022-11-20T01:23:59;97615.00;;;5.90
20058;BMP180;10189;49.546;7.906;2022-11-20T01:26:32;97625.00;;;5.90
20058;BMP180;10189;49.546;7.906;2022-11-20T01:28:59;97643.00;;;5.90
20058;BMP180;10189;49.546;7.906;2022-11-20T01:31:32;97628.00;;;6.00
20058;BMP180;10189;49.546;7.906;2022-11-20T01:34:10;97635.00;;;5.90
20058;BMP180;10189;49.546;7.906;2022-11-20T01:36:37;97632.00;;;5.80
20058;BMP180;10189;49.546;7.906;2022-11-20T01:39:09;97622.00;;;6.00
20058;BMP180;10189;49.546;7.906;2022-11-20T01:41:36;97626.00;;;6.00
20058;BMP180;10189;49.546;7.906;2022-11-20T01:44:49;97626.00;;;6.00
20058;BMP180;10189;49.546;7.906;2022-11-20T01:47:25;97614.00;;;6.00
20058;BMP180;10189;49.546;7.906;2022-11-20T01:50:09;97609.00;;;5.90
20058;BMP180;10189;49.546;7.906;2022-11-20T01:52:43;97624.00;;;5.80
20058;BMP180;10189;49.546;7.906;2022-11-20T01:55:18;97613.00;;;5.90
20058;BMP180;10189;49.546;7.906;2022-11-20T01:57:47;97621.00;;;6.00
20058;BMP180;10189;49.546;7.906;2022-11-20T02:00:16;97626.00;;;6.00
20058;BMP180;10189;49.546;7.906;2022-11-20T02:03:08;97628.00;;;6.10
20058;BMP180;10189;49.546;7.906;2022-11-20T02:05:51;97616.00;;;6.10
20058;BMP180;10189;49.546;7.906;2022-11-20T02:08:20;97613.00;;;6.20
20058;BMP180;10189;49.546;7.906;2022-11-20T02:10:47;97616.00;;;6.20
20058;BMP180;10189;49.546;7.906;2022-11-20T02:13:13;97614.00;;;6.20
20058;BMP180;10189;49.546;7.906;2022-11-20T02:15:57;97617.00;;;6.20
20058;BMP180;10189;49.546;7.906;2022-11-20T02:18:23;97621.00;;;6.20
20058;BMP180;10189;49.546;7.906;2022-11-20T02:20:57;97608.00;;;6.00
20058;BMP180;10189;49.546;7.906;2022-11-20T02:26:01;97605.00;;;6.20
20058;BMP180;10189;49.546;7.906;2022-11-20T02:28:28;97581.00;;;6.30
20058;BMP180;10189;49.546;7.906;2022-11-20T02:30:54;97593.00;;;6.30
20058;BMP180;10189;49.546;7.906;2022-11-20T02:33:20;97588.00;;;6.30
20058;BMP180;10189;49.546;7.906;2022-11-20T02:35:47;97596.00;;;6.30
20058;BMP180;10189;49.546;7.906;2022-11-20T02:38:13;97603.00;;;6.40
20058;BMP180;10189;49.546;7.906;2022-11-20T02:40:40;97594.00;;;6.40
20058;BMP180;10189;49.546;7.906;2022-11-20T02:43:07;97598.00;;;6.30
20058;BMP180;10189;49.546;7.906;2022-11-20T02:45:33;97596.00;;;6.30
20058;BMP180;10189;49.546;7.906;2022-11-20T02:47:59;97581.00;;;6.40
20058;BMP180;10189;49.546;7.906;2022-11-20T02:50:25;97601.00;;;6.30
20058;BMP180;10189;49.546;7.906;2022-11-20T02:52:51;97593.00;;;6.30
20058;BMP180;10189;49.546;7.906;2022-11-20T02:55:17;97595.00;;;6.30
20058;BMP180;10189;49.546;7.906;2022-11-20T02:57:43;97599.00;;;6.20
20058;BMP180;10189;49.546;7.906;2022-11-20T03:00:09;97591.00;;;6.30
20058;BMP180;10189;49.546;7.906;2022-11-20T03:02:36;97597.00;;;6.30
20058;BMP180;10189;49.546;7.906;2022-11-20T03:05:02;97592.00;;;6.30
20058;BMP180;10189;49.546;7.906;2022-11-20T03:07:28;97596.00;;;6.30
20058;BMP180;10189;49.546;7.906;2022-11-20T03:09:54;97585.00;;;6.40
20058;BMP180;10189;49.546;7.906;2022-11-20T03:12:20;97579.00;;;6.40
20058;BMP180;10189;49.546;7.906;2022-11-20T03:14:46;97580.00;;;6.50
20058;BMP180;10189;49.546;7.906;2022-11-20T03:17:11;97581.00;;;6.50
20058;BMP180;10189;49.546;7.906;2022-11-20T03:19:37;97573.00;;;6.50
20058;BMP180;10189;49.546;7.906;2022-11-20T03:22:03;97570.00;;;6.50
20058;BMP180;10189;49.546;7.906;2022-11-20T03:24:29;97577.00;;;6.50
20058;BMP180;10189;49.546;7.906;2022-11-20T03:26:55;97571.00;;;6.50
20058;BMP180;10189;49.546;7.906;2022-11-20T03:29:21;97563.00;;;6.40
20058;BMP180;10189;49.546;7.906;2022-11-20T03:31:46;97562.00;;;6.40
20058;BMP180;10189;49.546;7.906;2022-11-20T03:34:12;97577.00;;;6.40
20058;BMP180;10189;49.546;7.906;2022-11-20T03:36:41;97573.00;;;6.50
20058;BMP180;10189;49.546;7.906;2022-11-20T03:39:09;97573.00;;;6.50
20058;BMP180;10189;49.546;7.906;2022-11-20T03:41:41;97584.00;;;6.40
20058;BMP180;10189;49.546;7.906;2022-11-20T03:44:10;97591.00;;;6.20
20058;BMP180;10189;49.546;7.906;2022-11-20T03:46:36;97589.00;;;6.10
20058;BMP180;10189;49.546;7.906;2022-11-20T03:49:03;97584.00;;;6.20
20058;BMP180;10189;49.546;7.906;2022-11-20T03:51:32;97588.00;;;6.20
20058;BMP180;10189;49.546;7.906;2022-11-20T03:54:02;97583.00;;;6.10
20058;BMP180;10189;49.546;7.906;2022-11-20T03:56:32;97587.00;;;6.30
20058;BMP180;10189;49.546;7.906;2022-11-20T03:58:59;97578.00;;;6.40
20058;BMP180;10189;49.546;7.906;2022-11-20T04:01:30;97575.00;;;6.20
20058;BMP180;10189;49.546;7.906;2022-11-20T04:03:56;97565.00;;;6.40
20058;BMP180;10189;49.546;7.906;2022-11-20T04:06:33;97561.00;;;6.40
20058;BMP180;10189;49.546;7.906;2022-11-20T04:08:59;97575.00;;;6.30
20058;BMP180;10189;49.546;7.906;2022-11-20T04:11:32;97576.00;;;6.30
20058;BMP180;10189;49.546;7.906;2022-11-20T04:14:01;97572.00;;;6.30
20058;BMP180;10189;49.546;7.906;2022-11-20T04:16:32;97569.00;;;6.50
20058;BMP180;10189;49.546;7.906;2022-11-20T04:19:01;97571.00;;;6.50
20058;BMP180;10189;49.546;7.906;2022-11-20T04:21:28;97580.00;;;6.50
20058;BMP180;10189;49.546;7.906;2022-11-20T04:23:54;97574.00;;;6.60
20058;BMP180;10189;49.546;7.906;2022-11-20T04:26:23;97562.00;;;6.80
20058;BMP180;10189;49.546;7.906;2022-11-20T04:28:49;97573.00;;;6.80
20058;BMP180;10189;49.546;7.906;2022-11-20T04:31:19;97573.00;;;6.80
20058;BMP180;10189;49.546;7.906;2022-11-20T04:33:46;97570.00;;;6.80
20058;BMP180;10189;49.546;7.906;2022-11-20T04:36:24;97565.00;;;7.00
20058;BMP180;10189;49.546;7.906;2022-11-20T04:38:55;97555.00;;;7.00
20058;BMP180;10189;49.546;7.906;2022-11-20T04:41:27;97551.00;;;7.00
20058;BMP180;10189;49.546;7.906;2022-11-20T04:43:56;97555.00;;;7.10
20058;BMP180;10189;49.546;7.906;2022-11-20T04:46:27;97547.00;;;7.10
20058;BMP180;10189;49.546;7.906;2022-11-20T04:48:53;97556.00;;;7.10
20058;BMP180;10189;49.546;7.906;2022-11-20T04:51:20;97541.00;;;7.10
20058;BMP180;10189;49.546;7.906;2022-11-20T04:53:46;97555.00;;;7.10
20058;BMP180;10189;49.546;7.906;2022-11-20T04:56:13;97539.00;;;7.20
20058;BMP180;10189;49.546;7.906;2022-11-20T04:58:40;97549.00;;;7.30
20058;BMP180;10189;49.546;7.906;2022-11-20T05:01:13;97542.00;;;7.30
20058;BMP180;10189;49.546;7.906;2022-11-20T05:03:44;97545.00;;;7.40
20058;BMP180;10189;49.546;7.906;2022-11-20T05:06:14;97535.00;;;7.30
20058;BMP180;10189;49.546;7.906;2022-11-20T05:08:41;97541.00;;;7.40
20058;BMP180;10189;49.546;7.906;2022-11-20T05:11:19;97545.00;;;7.50
20058;BMP180;10189;49.546;7.906;2022-11-20T05:13:45;97537.00;;;7.50
20058;BMP180;10189;49.546;7.906;2022-11-20T05:16:17;97542.00;;;7.50
20058;BMP180;10189;49.546;7.906;2022-11-20T05:18:44;97538.00;;;7.60
20058;BMP180;10189;49.546;7.906;2022-11-20T05:21:11;97535.00;;;7.60
20058;BMP180;10189;49.546;7.906;2022-11-20T05:23:38;97533.00;;;7.60
20058;BMP180;10189;49.546;7.906;2022-11-20T05:26:06;97524.00;;;7.60
20058;BMP180;10189;49.546;7.906;2022-11-20T05:28:34;97526.00;;;7.60
20058;BMP180;10189;49.546;7.906;2022-11-20T05:31:09;97528.00;;;7.80
20058;BMP180;10189;49.546;7.906;2022-11-20T05:33:36;97536.00;;;7.70
20058;BMP180;10189;49.546;7.906;2022-11-20T05:36:06;97531.00;;;7.80
20058;BMP180;10189;49.546;7.906;2022-11-20T05:38:32;97533.00;;;7.80
20058;BMP180;10189;49.546;7.906;2022-11-20T05:41:11;97533.00;;;7.70
20058;BMP180;10189;49.546;7.906;2022-11-20T05:43:40;97523.00;;;7.90
20058;BMP180;10189;49.546;7.906;2022-11-20T05:46:09;97533.00;;;7.90
20058;BMP180;10189;49.546;7.906;2022-11-20T05:48:36;97535.00;;;8.10
20058;BMP180;10189;49.546;7.906;2022-11-20T05:51:05;97523.00;;;8.20
20058;BMP180;10189;49.546;7.906;2022-11-20T05:53:34;97520.00;;;8.30
20058;BMP180;10189;49.546;7.906;2022-11-20T05:56:05;97520.00;;;8.30
20058;BMP180;10189;49.546;7.906;2022-11-20T05:58:32;97521.00;;;8.40
20058;BMP180;10189;49.546;7.906;2022-11-20T06:01:15;97530.00;;;8.50
20058;BMP180;10189;49.546;7.906;2022-11-20T06:03:42;97526.00;;;8.50
20058;BMP180;10189;49.546;7.906;2022-11-20T06:06:09;97524.00;;;8.60
20058;BMP180;10189;49.546;7.906;2022-11-20T06:08:35;97533.00;;;8.70
20058;BMP180;10189;49.546;7.906;2022-11-20T06:11:06;97528.00;;;8.70
20058;BMP180;10189;49.546;7.906;2022-11-20T06:13:33;97518.00;;;8.80
20058;BMP180;10189;49.546;7.906;2022-11-20T06:15:59;97527.00;;;8.70
20058;BMP180;10189;49.546;7.906;2022-11-20T06:18:27;97521.00;;;8.70
20058;BMP180;10189;49.546;7.906;2022-11-20T06:21:24;97520.00;;;8.80
20058;BMP180;10189;49.546;7.906;2022-11-20T06:23:52;97526.00;;;8.70
20058;BMP180;10189;49.546;7.906;2022-11-20T06:26:24;97521.00;;;8.80
20058;BMP180;10189;49.546;7.906;2022-11-20T06:28:52;97513.00;;;8.70
20058;BMP180;10189;49.546;7.906;2022-11-20T06:31:21;97519.00;;;8.80
20058;BMP180;10189;49.546;7.906;2022-11-20T06:33:48;97505.00;;;8.80
20058;BMP180;10189;49.546;7.906;2022-11-20T06:36:17;97516.00;;;8.90
20058;BMP180;10189;49.546;7.906;2022-11-20T06:38:44;97510.00;;;8.90
20058;BMP180;10189;49.546;7.906;2022-11-20T06:41:18;97521.00;;;8.90
20058;BMP180;10189;49.546;7.906;2022-11-20T06:43:45;97514.00;;;8.90
20058;BMP180;10189;49.546;7.906;2022-11-20T06:46:13;97524.00;;;8.90
20058;BMP180;10189;49.546;7.906;2022-11-20T06:48:40;97517.00;;;8.90
20058;BMP180;10189;49.546;7.906;2022-11-20T06:51:07;97525.00;;;8.80
20058;BMP180;10189;49.546;7.906;2022-11-20T06:53:34;97523.00;;;8.80
20058;BMP180;10189;49.546;7.906;2022-11-20T06:56:00;97509.00;;;8.80
20058;BMP180;10189;49.546;7.906;2022-11-20T06:58:29;97519.00;;;8.80
20058;BMP180;10189;49.546;7.906;2022-11-20T07:00:59;97524.00;;;8.80
20058;BMP180;10189;49.546;7.906;2022-11-20T07:03:25;97526.00;;;8.90
20058;BMP180;10189;49.546;7.906;2022-11-20T07:05:54;97523.00;;;8.80
20058;BMP180;10189;49.546;7.906;2022-11-20T07:08:20;97526.00;;;8.80
20058;BMP180;10189;49.546;7.906;2022-11-20T07:10:46;97529.00;;;8.90
20058;BMP180;10189;49.546;7.906;2022-11-20T07:13:12;97535.00;;;9.00
20058;BMP180;10189;49.546;7.906;2022-11-20T07:15:38;97538.00;;;9.00
20058;BMP180;10189;49.546;7.906;2022-11-20T07:18:03;97533.00;;;9.00
20058;BMP180;10189;49.546;7.906;2022-11-20T07:20:30;97527.00;;;9.10
20058;BMP180;10189;49.546;7.906;2022-11-20T07:22:57;97536.00;;;9.10
20058;BMP180;10189;49.546;7.906;2022-11-20T07:25:25;97545.00;;;9.10
20058;BMP180;10189;49.546;7.906;2022-11-20T07:27:51;97539.00;;;9.00
20058;BMP180;10189;49.546;7.906;2022-11-20T07:30:17;97543.00;;;9.00
20058;BMP180;10189;49.546;7.906;2022-11-20T07:32:50;97545.00;;;9.10
20058;BMP180;10189;49.546;7.906;2022-11-20T07:35:16;97540.00;;;9.10
20058;BMP180;10189;49.546;7.906;2022-11-20T07:37:42;97535.00;;;9.00
20058;BMP180;10189;49.546;7.906;2022-11-20T07:40:08;97527.00;;;9.10
20058;BMP180;10189;49.546;7.906;2022-11-20T07:42:34;97536.00;;;9.10
20058;BMP180;10189;49.546;7.906;2022-11-20T07:45:01;97534.00;;;9.20
20058;BMP180;10189;49.546;7.906;2022-11-20T07:47:27;97538.00;;;9.20
20058;BMP180;10189;49.546;7.906;2022-11-20T07:49:52;97539.00;;;9.20
20058;BMP180;10189;49.546;7.906;2022-11-20T07:52:18;97542.00;;;9.30
20058;BMP180;10189;49.546;7.906;2022-11-20T07:54:44;97556.00;;;9.30
20058;BMP180;10189;49.546;7.906;2022-11-20T07:57:10;97557.00;;;9.40
20058;BMP180;10189;49.546;7.906;2022-11-20T07:59:36;97554.00;;;9.30
20058;BMP180;10189;49.546;7.906;2022-11-20T08:02:02;97564.00;;;9.20
20058;BMP180;10189;49.546;7.906;2022-11-20T08:04:28;97561.00;;;9.30
20058;BMP180;10189;49.546;7.906;2022-11-20T08:06:54;97562.00;;;9.30
20058;BMP180;10189;49.546;7.906;2022-11-20T08:09:19;97569.00;;;9.30
20058;BMP180;10189;49.546;7.906;2022-11-20T08:11:45;97560.00;;;9.30
20058;BMP180;10189;49.546;7.906;2022-11-20T08:14:30;97565.00;;;9.40
20058;BMP180;10189;49.546;7.906;2022-11-20T08:16:56;97561.00;;;9.40
20058;BMP180;10189;49.546;7.906;2022-11-20T08:19:22;97573.00;;;9.40
20058;BMP180;10189;49.546;7.906;2022-11-20T08:21:47;97572.00;;;9.40
20058;BMP180;10189;49.546;7.906;2022-11-20T08:24:13;97571.00;;;9.40
20058;BMP180;10189;49.546;7.906;2022-11-20T08:26:40;97581.00;;;9.40
20058;BMP180;10189;49.546;7.906;2022-11-20T08:29:06;97584.00;;;9.40
20058;BMP180;10189;49.546;7.906;2022-11-20T08:31:33;97581.00;;;9.60
20058;BMP180;10189;49.546;7.906;2022-11-20T08:33:59;97579.00;;;9.60
20058;BMP180;10189;49.546;7.906;2022-11-20T08:36:25;97578.00;;;9.60
20058;BMP180;10189;49.546;7.906;2022-11-20T08:38:54;97587.00;;;9.60
20058;BMP180;10189;49.546;7.906;2022-11-20T08:41:21;97580.00;;;9.70
20058;BMP180;10189;49.546;7.906;2022-11-20T08:43:59;97583.00;;;9.70
20058;BMP180;10189;49.546;7.906;2022-11-20T08:46:30;97582.00;;;9.70
20058;BMP180;10189;49.546;7.906;2022-11-20T08:48:56;97580.00;;;9.70
20058;BMP180;10189;49.546;7.906;2022-11-20T08:51:22;97585.00;;;9.80
20058;BMP180;10189;49.546;7.906;2022-11-20T08:53:48;97588.00;;;9.70
20058;BMP180;10189;49.546;7.906;2022-11-20T08:56:14;97589.00;;;9.80
20058;BMP180;10189;49.546;7.906;2022-11-20T08:58:40;97599.00;;;9.80
20058;BMP180;10189;49.546;7.906;2022-11-20T09:01:07;97598.00;;;9.90
20058;BMP180;10189;49.546;7.906;2022-11-20T09:03:33;97601.00;;;9.90
20058;BMP180;10189;49.546;7.906;2022-11-20T09:06:01;97595.00;;;9.90
20058;BMP180;10189;49.546;7.906;2022-11-20T09:08:29;97599.00;;;9.90
20058;BMP180;10189;49.546;7.906;2022-11-20T09:10:57;97602.00;;;10.00
20058;BMP180;10189;49.546;7.906;2022-11-20T09:13:25;97596.00;;;10.00
20058;BMP180;10189;49.546;7.906;2022-11-20T09:15:57;97599.00;;;10.00
20058;BMP180;10189;49.546;7.906;2022-11-20T09:18:24;97611.00;;;9.90
20058;BMP180;10189;49.546;7.906;2022-11-20T09:20:50;97603.00;;;9.90
20058;BMP180;10189;49.546;7.906;2022-11-20T09:23:16;97599.00;;;9.70
20058;BMP180;10189;49.546;7.906;2022-11-20T09:25:43;97600.00;;;9.80
20058;BMP180;10189;49.546;7.906;2022-11-20T09:28:10;97595.00;;;9.80
20058;BMP180;10189;49.546;7.906;2022-11-20T09:30:35;97606.00;;;9.80
20058;BMP180;10189;49.546;7.906;2022-11-20T09:33:04;97602.00;;;9.90
20058;BMP180;10189;49.546;7.906;2022-11-20T09:35:30;97606.00;;;10.00
20058;BMP180;10189;49.546;7.906;2022-11-20T09:37:56;97608.00;;;10.00
20058;BMP180;10189;49.546;7.906;2022-11-20T09:40:27;97608.00;;;10.10
20058;BMP180;10189;49.546;7.906;2022-11-20T09:43:10;97597.00;;;10.20
20058;BMP180;10189;49.546;7.906;2022-11-20T09:46:04;97612.00;;;10.20
20058;BMP180;10189;49.546;7.906;2022-11-20T09:49:16;97608.00;;;10.10
20058;BMP180;10189;49.546;7.906;2022-11-20T09:52:25;97621.00;;;10.20
20058;BMP180;10189;49.546;7.906;2022-11-20T09:54:54;97613.00;;;10.10
20058;BMP180;10189;49.546;7.906;2022-11-20T09:57:34;97608.00;;;10.20
20058;BMP180;10189;49.546;7.906;2022-11-20T10:00:04;97603.00;;;10.20
20058;BMP180;10189;49.546;7.906;2022-11-20T10:11:32;97603.00;;;10.70
20058;BMP180;10189;49.546;7.906;2022-11-20T10:17:03;97597.00;;;10.50
20058;BMP180;10189;49.546;7.906;2022-11-20T10:26:03;97595.00;;;10.50
20058;BMP180;10189;49.546;7.906;2022-11-20T10:31:27;97582.00;;;10.60
20058;BMP180;10189;49.546;7.906;2022-11-20T10:33:57;97589.00;;;10.70
20058;BMP180;10189;49.546;7.906;2022-11-20T10:36:34;97580.00;;;10.70
20058;BMP180;10189;49.546;7.906;2022-11-20T10:39:28;97572.00;;;10.80
20058;BMP180;10189;49.546;7.906;2022-11-20T10:41:56;97581.00;;;10.90
20058;BMP180;10189;49.546;7.906;2022-11-20T10:44:28;97573.00;;;10.90
20058;BMP180;10189;49.546;7.906;2022-11-20T10:47:16;97572.00;;;11.00
20058;BMP180;10189;49.546;7.906;2022-11-20T10:49:51;97572.00;;;10.80
20058;BMP180;10189;49.546;7.906;2022-11-20T10:52:56;97558.00;;;10.80
20058;BMP180;10189;49.546;7.906;2022-11-20T10:55:50;97562.00;;;10.70
20058;BMP180;10189;49.546;7.906;2022-11-20T10:58:40;97570.00;;;10.40
20058;BMP180;10189;49.546;7.906;2022-11-20T11:01:19;97569.00;;;10.20
20058;BMP180;10189;49.546;7.906;2022-11-20T11:03:48;97567.00;;;10.10
20058;BMP180;10189;49.546;7.906;2022-11-20T11:06:37;97569.00;;;10.10
20058;BMP180;10189;49.546;7.906;2022-11-20T11:09:16;97567.00;;;10.00
20058;BMP180;10189;49.546;7.906;2022-11-20T11:11:42;97572.00;;;10.00
20058;BMP180;10189;49.546;7.906;2022-11-20T11:14:13;97559.00;;;10.10
20058;BMP180;10189;49.546;7.906;2022-11-20T11:16:58;97576.00;;;10.00
20058;BMP180;10189;49.546;7.906;2022-11-20T11:19:24;97566.00;;;10.00
20058;BMP180;10189;49.546;7.906;2022-11-20T11:21:55;97555.00;;;10.10
20058;BMP180;10189;49.546;7.906;2022-11-20T11:24:28;97551.00;;;10.10
20058;BMP180;10189;49.546;7.906;2022-11-20T11:27:03;97539.00;;;10.00
20058;BMP180;10189;49.546;7.906;2022-11-20T11:29:33;97540.00;;;9.80
20058;BMP180;10189;49.546;7.906;2022-11-20T11:32:18;97544.00;;;9.90
20058;BMP180;10189;49.546;7.906;2022-11-20T11:35:03;97549.00;;;9.90
20058;BMP180;10189;49.546;7.906;2022-11-20T11:37:35;97543.00;;;10.00
20058;BMP180;10189;49.546;7.906;2022-11-20T11:40:08;97541.00;;;10.20
20058;BMP180;10189;49.546;7.906;2022-11-20T11:42:42;97536.00;;;10.30
20058;BMP180;10189;49.546;7.906;2022-11-20T11:45:15;97545.00;;;10.60
20058;BMP180;10189;49.546;7.906;2022-11-20T11:50:19;97517.00;;;10.80
20058;BMP180;10189;49.546;7.906;2022-11-20T11:53:10;97522.00;;;10.90
20058;BMP180;10189;49.546;7.906;2022-11-20T11:55:54;97513.00;;;11.10
20058;BMP180;10189;49.546;7.906;2022-11-20T11:58:47;97522.00;;;11.30
20058;BMP180;10189;49.546;7.906;2022-11-20T12:10:01;97502.00;;;11.10
20058;BMP180;10189;49.546;7.906;2022-11-20T12:12:36;97499.00;;;11.10
20058;BMP180;10189;49.546;7.906;2022-11-20T12:15:10;97487.00;;;11.20
20058;BMP180;10189;49.546;7.906;2022-11-20T12:17:37;97485.00;;;11.10
20058;BMP180;10189;49.546;7.906;2022-11-20T12:20:11;97487.00;;;11.10
20058;BMP180;10189;49.546;7.906;2022-11-20T12:25:38;97485.00;;;11.20
20058;BMP180;10189;49.546;7.906;2022-11-20T12:34:13;97501.00;;;10.90
20058;BMP180;10189;49.546;7.906;2022-11-20T12:37:29;97496.00;;;10.90
20058;BMP180;10189;49.546;7.906;2022-11-20T12:39:55;97493.00;;;11.00
20058;BMP180;10189;49.546;7.906;2022-11-20T12:42:45;97499.00;;;11.10
20058;BMP180;10189;49.546;7.906;2022-11-20T12:58:00;97481.00;;;10.60
20058;BMP180;10189;49.546;7.906;2022-11-20T13:00:32;97482.00;;;10.60
20058;BMP180;10189;49.546;7.906;2022-11-20T13:05:51;97489.00;;;10.70
20058;BMP180;10189;49.546;7.906;2022-11-20T13:08:30;97477.00;;;10.80
20058;BMP180;10189;49.546;7.906;2022-11-20T13:17:05;97468.00;;;10.70
20058;BMP180;10189;49.546;7.906;2022-11-20T13:19:36;97472.00;;;10.70
20058;BMP180;10189;49.546;7.906;2022-11-20T13:22:02;97472.00;;;10.80
20058;BMP180;10189;49.546;7.906;2022-11-20T13:24:30;97459.00;;;10.80
20058;BMP180;10189;49.546;7.906;2022-11-20T13:29:36;97454.00;;;10.80
20058;BMP180;10189;49.546;7.906;2022-11-20T13:34:39;97457.00;;;10.80
20058;BMP180;10189;49.546;7.906;2022-11-20T13:37:05;97449.00;;;10.90
20058;BMP180;10189;49.546;7.906;2022-11-20T13:39:34;97447.00;;;11.00
20058;BMP180;10189;49.546;7.906;2022-11-20T13:42:23;97439.00;;;10.90
20058;BMP180;10189;49.546;7.906;2022-11-20T13:44:55;97441.00;;;10.80
20058;BMP180;10189;49.546;7.906;2022-11-20T13:47:25;97444.00;;;10.70
20058;BMP180;10189;49.546;7.906;2022-11-20T13:49:57;97436.00;;;10.60
20058;BMP180;10189;49.546;7.906;2022-11-20T13:55:53;97434.00;;;10.50
20058;BMP180;10189;49.546;7.906;2022-11-20T14:01:45;97420.00;;;10.50
20058;BMP180;10189;49.546;7.906;2022-11-20T14:04:23;97426.00;;;10.60
20058;BMP180;10189;49.546;7.906;2022-11-20T14:06:51;97416.00;;;10.50
20058;BMP180;10189;49.546;7.906;2022-11-20T14:09:32;97421.00;;;10.40
20058;BMP180;10189;49.546;7.906;2022-11-20T14:11:59;97421.00;;;10.30
20058;BMP180;10189;49.546;7.906;2022-11-20T14:14:28;97423.00;;;10.30
20058;BMP180;10189;49.546;7.906;2022-11-20T14:19:58;97420.00;;;10.40
20058;BMP180;10189;49.546;7.906;2022-11-20T14:22:27;97413.00;;;10.40
20058;BMP180;10189;49.546;7.906;2022-11-20T14:27:45;97394.00;;;10.40
20058;BMP180;10189;49.546;7.906;2022-11-20T14:30:17;97409.00;;;10.30
20058;BMP180;10189;49.546;7.906;2022-11-20T14:32:46;97402.00;;;10.20
20058;BMP180;10189;49.546;7.906;2022-11-20T14:35:29;97404.00;;;10.20
20058;BMP180;10189;49.546;7.906;2022-11-20T14:37:57;97399.00;;;10.20
20058;BMP180;10189;49.546;7.906;2022-11-20T14:40:34;97397.00;;;10.20
20058;BMP180;10189;49.546;7.906;2022-11-20T14:43:20;97390.00;;;10.20
20058;BMP180;10189;49.546;7.906;2022-11-20T14:46:03;97383.00;;;10.20
20058;BMP180;10189;49.546;7.906;2022-11-20T14:48:55;97384.00;;;10.20
20058;BMP180;10189;49.546;7.906;2022-11-20T14:51:36;97397.00;;;10.00
20058;BMP180;10189;49.546;7.906;2022-11-20T14:54:20;97383.00;;;9.90
20058;BMP180;10189;49.546;7.906;2022-11-20T14:57:00;97391.00;;;9.90
20058;BMP180;10189;49.546;7.906;2022-11-20T14:59:30;97382.00;;;9.90
20058;BMP180;10189;49.546;7.906;2022-11-20T15:02:00;97374.00;;;9.80
20058;BMP180;10189;49.546;7.906;2022-11-20T15:04:27;97373.00;;;9.80
20058;BMP180;10189;49.546;7.906;2022-11-20T15:06:57;97380.00;;;9.70
20058;BMP180;10189;49.546;7.906;2022-11-20T15:09:23;97380.00;;;9.60
20058;BMP180;10189;49.546;7.906;2022-11-20T15:11:59;97379.00;;;9.70
20058;BMP180;10189;49.546;7.906;2022-11-20T15:14:28;97377.00;;;9.70
20058;BMP180;10189;49.546;7.906;2022-11-20T15:16:55;97378.00;;;9.70
20058;BMP180;10189;49.546;7.906;2022-11-20T15:19:26;97376.00;;;9.70
20058;BMP180;10189;49.546;7.906;2022-11-20T15:21:53;97389.00;;;9.60
20058;BMP180;10189;49.546;7.906;2022-11-20T15:24:19;97383.00;;;9.60
20058;BMP180;10189;49.546;7.906;2022-11-20T15:26:45;97376.00;;;9.60
20058;BMP180;10189;49.546;7.906;2022-11-20T15:29:15;97369.00;;;9.70
20058;BMP180;10189;49.546;7.906;2022-11-20T15:31:45;97364.00;;;9.60
20058;BMP180;10189;49.546;7.906;2022-11-20T15:34:12;97373.00;;;9.60
20058;BMP180;10189;49.546;7.906;2022-11-20T15:36:39;97369.00;;;9.70
20058;BMP180;10189;49.546;7.906;2022-11-20T15:39:06;97372.00;;;9.60
20058;BMP180;10189;49.546;7.906;2022-11-20T15:41:36;97362.00;;;9.60
20058;BMP180;10189;49.546;7.906;2022-11-20T15:44:03;97365.00;;;9.60
20058;BMP180;10189;49.546;7.906;2022-11-20T15:46:33;97369.00;;;9.50
20058;BMP180;10189;49.546;7.906;2022-11-20T15:49:05;97361.00;;;9.50
20058;BMP180;10189;49.546;7.906;2022-11-20T15:51:35;97354.00;;;9.50
20058;BMP180;10189;49.546;7.906;2022-11-20T15:54:09;97343.00;;;9.40
20058;BMP180;10189;49.546;7.906;2022-11-20T15:56:36;97361.00;;;9.50
20058;BMP180;10189;49.546;7.906;2022-11-20T15:59:03;97355.00;;;9.50
20058;BMP180;10189;49.546;7.906;2022-11-20T16:01:29;97352.00;;;9.50
20058;BMP180;10189;49.546;7.906;2022-11-20T16:03:57;97362.00;;;9.50
20058;BMP180;10189;49.546;7.906;2022-11-20T16:06:23;97348.00;;;9.50